sensor_id;sensor_type;location;lat;lon;timestamp;temperature;humidity
59469;DHT22;45277;52.768;18.262;2024-01-30T00:00:05;0.10;99.90
59469;DHT22;45277;52.768;18.262;2024-01-30T00:01:37;0.10;99.90
59469;DHT22;45277;52.768;18.262;2024-01-30T00:03:09;0.10;99.90
59469;DHT22;45277;52.768;18.262;2024-01-30T00:04:40;0.10;99.90
59469;DHT22;45277;52.768;18.262;2024-01-30T00:06:11;0.00;99.90
59469;DHT22;45277;52.768;18.262;2024-01-30T00:07:43;0.00;99.90
59469;DHT22;45277;52.768;18.262;2024-01-30T00:09:14;0.10;99.90
59469;DHT22;45277;52.768;18.262;2024-01-30T00:10:46;0.10;99.90
59469;DHT22;45277;52.768;18.262;2024-01-30T00:12:17;0.10;99.90
59469;DHT22;45277;52.768;18.262;2024-01-30T00:13:48;0.10;99.90
59469;DHT22;45277;52.768;18.262;2024-01-30T00:15:19;0.20;99.90
59469;DHT22;45277;52.768;18.262;2024-01-30T00:16:51;0.10;99.90
59469;DHT22;45277;52.768;18.262;2024-01-30T00:18:22;0.10;99.90
59469;DHT22;45277;52.768;18.262;2024-01-30T00:19:54;0.10;99.90
59469;DHT22;45277;52.768;18.262;2024-01-30T00:21:25;0.10;99.90
59469;DHT22;45277;52.768;18.262;2024-01-30T00:22:56;0.00;99.90
59469;DHT22;45277;52.768;18.262;2024-01-30T00:24:27;0.00;99.90
59469;DHT22;45277;52.768;18.262;2024-01-30T00:25:59;-0.10;99.90
59469;DHT22;45277;52.768;18.262;2024-01-30T00:27:30;-0.10;99.90
59469;DHT22;45277;52.768;18.262;2024-01-30T00:29:01;-0.10;99.90
59469;DHT22;45277;52.768;18.262;2024-01-30T00:30:33;-0.10;99.90
59469;DHT22;45277;52.768;18.262;2024-01-30T00:32:04;-0.10;99.90
59469;DHT22;45277;52.768;18.262;2024-01-30T00:33:36;0.00;99.90
59469;DHT22;45277;52.768;18.262;2024-01-30T00:35:07;0.00;99.90
59469;DHT22;45277;52.768;18.262;2024-01-30T00:36:40;0.10;99.90
59469;DHT22;45277;52.768;18.262;2024-01-30T00:38:11;0.10;99.90
59469;DHT22;45277;52.768;18.262;2024-01-30T00:39:43;0.10;99.90
59469;DHT22;45277;52.768;18.262;2024-01-30T00:41:14;0.10;99.90
59469;DHT22;45277;52.768;18.262;2024-01-30T00:42:48;0.00;99.90
59469;DHT22;45277;52.768;18.262;2024-01-30T00:44:19;0.10;99.90
59469;DHT22;45277;52.768;18.262;2024-01-30T00:45:51;0.10;99.90
59469;DHT22;45277;52.768;18.262;2024-01-30T00:47:23;0.10;99.90
59469;DHT22;45277;52.768;18.262;2024-01-30T00:48:55;0.20;99.90
59469;DHT22;45277;52.768;18.262;2024-01-30T00:50:26;0.10;99.90
59469;DHT22;45277;52.768;18.262;2024-01-30T00:51:57;0.10;99.90
59469;DHT22;45277;52.768;18.262;2024-01-30T00:53:28;0.10;99.90
59469;DHT22;45277;52.768;18.262;2024-01-30T00:55:00;0.00;99.90
59469;DHT22;45277;52.768;18.262;2024-01-30T00:56:32;0.00;99.90
59469;DHT22;45277;52.768;18.262;2024-01-30T00:58:03;0.00;99.90
59469;DHT22;45277;52.768;18.262;2024-01-30T00:59:34;0.00;99.90
59469;DHT22;45277;52.768;18.262;2024-01-30T01:01:06;0.00;99.90
59469;DHT22;45277;52.768;18.262;2024-01-30T01:02:38;-0.10;99.90
59469;DHT22;45277;52.768;18.262;2024-01-30T01:04:12;0.00;99.90
59469;DHT22;45277;52.768;18.262;2024-01-30T01:05:43;0.00;99.90
59469;DHT22;45277;52.768;18.262;2024-01-30T01:07:14;0.10;99.90
59469;DHT22;45277;52.768;18.262;2024-01-30T01:08:46;0.10;99.90
59469;DHT22;45277;52.768;18.262;2024-01-30T01:10:17;0.20;99.90
59469;DHT22;45277;52.768;18.262;2024-01-30T01:11:49;0.30;99.90
59469;DHT22;45277;52.768;18.262;2024-01-30T01:13:20;0.30;99.90
59469;DHT22;45277;52.768;18.262;2024-01-30T01:14:51;0.30;99.90
59469;DHT22;45277;52.768;18.262;2024-01-30T01:16:23;0.30;99.90
59469;DHT22;45277;52.768;18.262;2024-01-30T01:17:54;0.30;99.90
59469;DHT22;45277;52.768;18.262;2024-01-30T01:19:25;0.40;99.90
59469;DHT22;45277;52.768;18.262;2024-01-30T01:20:56;0.30;99.90
59469;DHT22;45277;52.768;18.262;2024-01-30T01:22:28;0.30;99.90
59469;DHT22;45277;52.768;18.262;2024-01-30T01:23:59;0.40;99.90
59469;DHT22;45277;52.768;18.262;2024-01-30T01:25:30;0.40;99.90
59469;DHT22;45277;52.768;18.262;2024-01-30T01:27:02;0.40;99.90
59469;DHT22;45277;52.768;18.262;2024-01-30T01:28:33;0.40;99.90
59469;DHT22;45277;52.768;18.262;2024-01-30T01:30:05;0.40;99.90
59469;DHT22;45277;52.768;18.262;2024-01-30T01:31:39;0.50;99.90
59469;DHT22;45277;52.768;18.262;2024-01-30T01:33:14;0.50;99.90
59469;DHT22;45277;52.768;18.262;2024-01-30T01:34:45;0.50;99.90
59469;DHT22;45277;52.768;18.262;2024-01-30T01:36:17;0.50;99.90
59469;DHT22;45277;52.768;18.262;2024-01-30T01:37:48;0.50;99.90
59469;DHT22;45277;52.768;18.262;2024-01-30T01:39:25;0.50;99.90
59469;DHT22;45277;52.768;18.262;2024-01-30T01:40:57;0.40;99.90
59469;DHT22;45277;52.768;18.262;2024-01-30T01:42:28;0.40;99.90
59469;DHT22;45277;52.768;18.262;2024-01-30T01:43:59;0.50;99.90
59469;DHT22;45277;52.768;18.262;2024-01-30T01:45:31;0.50;99.90
59469;DHT22;45277;52.768;18.262;2024-01-30T01:47:02;0.50;99.90
59469;DHT22;45277;52.768;18.262;2024-01-30T01:48:34;0.50;99.90
59469;DHT22;45277;52.768;18.262;2024-01-30T01:50:06;0.50;99.90
59469;DHT22;45277;52.768;18.262;2024-01-30T01:51:37;0.40;99.90
59469;DHT22;45277;52.768;18.262;2024-01-30T01:53:09;0.40;99.90
59469;DHT22;45277;52.768;18.262;2024-01-30T01:54:41;0.40;99.90
59469;DHT22;45277;52.768;18.262;2024-01-30T01:56:13;0.30;99.90
59469;DHT22;45277;52.768;18.262;2024-01-30T01:57:45;0.30;99.90
59469;DHT22;45277;52.768;18.262;2024-01-30T01:59:17;0.20;99.90
59469;DHT22;45277;52.768;18.262;2024-01-30T02:03:30;0.20;99.90
59469;DHT22;45277;52.768;18.262;2024-01-30T02:05:02;0.20;99.90
59469;DHT22;45277;52.768;18.262;2024-01-30T02:06:34;0.20;99.90
59469;DHT22;45277;52.768;18.262;2024-01-30T02:08:06;0.10;99.90
59469;DHT22;45277;52.768;18.262;2024-01-30T02:09:38;0.10;99.90
59469;DHT22;45277;52.768;18.262;2024-01-30T02:11:10;0.10;99.90
59469;DHT22;45277;52.768;18.262;2024-01-30T02:12:42;0.10;99.90
59469;DHT22;45277;52.768;18.262;2024-01-30T02:14:13;0.10;99.90
59469;DHT22;45277;52.768;18.262;2024-01-30T02:15:49;0.20;99.90
59469;DHT22;45277;52.768;18.262;2024-01-30T02:17:21;0.20;99.90
59469;DHT22;45277;52.768;18.262;2024-01-30T02:18:54;0.20;99.90
59469;DHT22;45277;52.768;18.262;2024-01-30T02:20:25;0.20;99.90
59469;DHT22;45277;52.768;18.262;2024-01-30T02:21:59;0.20;99.90
59469;DHT22;45277;52.768;18.262;2024-01-30T02:23:31;0.20;99.90
59469;DHT22;45277;52.768;18.262;2024-01-30T02:25:04;0.10;99.90
59469;DHT22;45277;52.768;18.262;2024-01-30T02:26:35;0.10;99.90
59469;DHT22;45277;52.768;18.262;2024-01-30T02:28:07;-0.10;99.90
59469;DHT22;45277;52.768;18.262;2024-01-30T02:29:38;-0.20;99.90
59469;DHT22;45277;52.768;18.262;2024-01-30T02:31:09;-0.20;99.90
59469;DHT22;45277;52.768;18.262;2024-01-30T02:32:40;-0.30;99.90
59469;DHT22;45277;52.768;18.262;2024-01-30T02:34:12;-0.40;99.90
59469;DHT22;45277;52.768;18.262;2024-01-30T02:35:43;-0.30;99.90
59469;DHT22;45277;52.768;18.262;2024-01-30T02:37:16;-0.40;99.90
59469;DHT22;45277;52.768;18.262;2024-01-30T02:38:47;-0.40;99.90
59469;DHT22;45277;52.768;18.262;2024-01-30T02:40:18;-0.40;99.90
59469;DHT22;45277;52.768;18.262;2024-01-30T02:41:50;-0.50;99.90
59469;DHT22;45277;52.768;18.262;2024-01-30T02:43:21;-0.50;99.90
59469;DHT22;45277;52.768;18.262;2024-01-30T02:44:52;-0.50;99.90
59469;DHT22;45277;52.768;18.262;2024-01-30T02:46:23;-0.60;99.90
59469;DHT22;45277;52.768;18.262;2024-01-30T02:47:55;-0.60;99.90
59469;DHT22;45277;52.768;18.262;2024-01-30T02:49:26;-0.60;99.90
59469;DHT22;45277;52.768;18.262;2024-01-30T02:50:57;-0.60;99.90
59469;DHT22;45277;52.768;18.262;2024-01-30T02:52:29;-0.60;99.90
59469;DHT22;45277;52.768;18.262;2024-01-30T02:54:00;-0.60;99.90
59469;DHT22;45277;52.768;18.262;2024-01-30T02:55:32;-0.70;99.90
59469;DHT22;45277;52.768;18.262;2024-01-30T02:57:04;-0.60;99.90
59469;DHT22;45277;52.768;18.262;2024-01-30T02:58:36;-0.60;99.90
59469;DHT22;45277;52.768;18.262;2024-01-30T03:00:08;-0.60;99.90
59469;DHT22;45277;52.768;18.262;2024-01-30T03:01:46;-0.60;99.90
59469;DHT22;45277;52.768;18.262;2024-01-30T03:03:18;-0.60;99.90
59469;DHT22;45277;52.768;18.262;2024-01-30T03:04:49;-0.50;99.90
59469;DHT22;45277;52.768;18.262;2024-01-30T03:06:20;-0.50;99.90
59469;DHT22;45277;52.768;18.262;2024-01-30T03:07:53;-0.50;99.90
59469;DHT22;45277;52.768;18.262;2024-01-30T03:09:24;-0.60;99.90
59469;DHT22;45277;52.768;18.262;2024-01-30T03:10:55;-0.50;99.90
59469;DHT22;45277;52.768;18.262;2024-01-30T03:12:26;-0.50;99.90
59469;DHT22;45277;52.768;18.262;2024-01-30T03:13:57;-0.50;99.90
59469;DHT22;45277;52.768;18.262;2024-01-30T03:15:29;-0.50;99.90
59469;DHT22;45277;52.768;18.262;2024-01-30T03:17:00;-0.50;99.90
59469;DHT22;45277;52.768;18.262;2024-01-30T03:18:31;-0.50;99.90
59469;DHT22;45277;52.768;18.262;2024-01-30T03:20:03;-0.50;99.90
59469;DHT22;45277;52.768;18.262;2024-01-30T03:21:35;-0.60;99.90
59469;DHT22;45277;52.768;18.262;2024-01-30T03:23:07;-0.50;99.90
59469;DHT22;45277;52.768;18.262;2024-01-30T03:24:38;-0.60;99.90
59469;DHT22;45277;52.768;18.262;2024-01-30T03:26:09;-0.50;99.90
59469;DHT22;45277;52.768;18.262;2024-01-30T03:27:41;-0.60;99.90
59469;DHT22;45277;52.768;18.262;2024-01-30T03:29:13;-0.60;99.90
59469;DHT22;45277;52.768;18.262;2024-01-30T03:30:44;-0.60;99.90
59469;DHT22;45277;52.768;18.262;2024-01-30T03:32:15;-0.60;99.90
59469;DHT22;45277;52.768;18.262;2024-01-30T03:33:46;-0.60;99.90
59469;DHT22;45277;52.768;18.262;2024-01-30T03:35:19;-0.70;99.90
59469;DHT22;45277;52.768;18.262;2024-01-30T03:36:50;-0.70;99.90
59469;DHT22;45277;52.768;18.262;2024-01-30T03:38:21;-0.60;99.90
59469;DHT22;45277;52.768;18.262;2024-01-30T03:39:52;-0.60;99.90
59469;DHT22;45277;52.768;18.262;2024-01-30T03:41:24;-0.60;99.90
59469;DHT22;45277;52.768;18.262;2024-01-30T03:42:55;-0.60;99.90
59469;DHT22;45277;52.768;18.262;2024-01-30T03:44:26;-0.70;99.90
59469;DHT22;45277;52.768;18.262;2024-01-30T03:45:57;-0.70;99.90
59469;DHT22;45277;52.768;18.262;2024-01-30T03:47:28;-0.70;99.90
59469;DHT22;45277;52.768;18.262;2024-01-30T03:49:00;-0.70;99.90
59469;DHT22;45277;52.768;18.262;2024-01-30T03:50:31;-0.70;99.90
59469;DHT22;45277;52.768;18.262;2024-01-30T03:52:03;-0.70;99.90
59469;DHT22;45277;52.768;18.262;2024-01-30T03:53:34;-0.80;99.90
59469;DHT22;45277;52.768;18.262;2024-01-30T03:55:06;-0.80;99.90
59469;DHT22;45277;52.768;18.262;2024-01-30T03:56:37;-0.80;99.90
59469;DHT22;45277;52.768;18.262;2024-01-30T03:58:09;-0.70;99.90
59469;DHT22;45277;52.768;18.262;2024-01-30T03:59:42;-0.70;99.90
59469;DHT22;45277;52.768;18.262;2024-01-30T04:01:14;-0.70;99.90
59469;DHT22;45277;52.768;18.262;2024-01-30T04:02:46;-0.60;99.90
59469;DHT22;45277;52.768;18.262;2024-01-30T04:04:20;-0.70;99.90
59469;DHT22;45277;52.768;18.262;2024-01-30T04:05:54;-0.70;99.90
59469;DHT22;45277;52.768;18.262;2024-01-30T04:07:25;-0.70;99.90
59469;DHT22;45277;52.768;18.262;2024-01-30T04:08:56;-0.60;99.90
59469;DHT22;45277;52.768;18.262;2024-01-30T04:10:28;-0.70;99.90
59469;DHT22;45277;52.768;18.262;2024-01-30T04:11:59;-0.70;99.90
59469;DHT22;45277;52.768;18.262;2024-01-30T04:13:31;-0.80;99.90
59469;DHT22;45277;52.768;18.262;2024-01-30T04:15:02;-0.80;99.90
59469;DHT22;45277;52.768;18.262;2024-01-30T04:16:35;-0.80;99.90
59469;DHT22;45277;52.768;18.262;2024-01-30T04:18:07;-0.80;99.90
59469;DHT22;45277;52.768;18.262;2024-01-30T04:19:38;-0.80;99.90
59469;DHT22;45277;52.768;18.262;2024-01-30T04:21:10;-0.80;99.90
59469;DHT22;45277;52.768;18.262;2024-01-30T04:22:45;-0.80;99.90
59469;DHT22;45277;52.768;18.262;2024-01-30T04:24:17;-0.70;99.90
59469;DHT22;45277;52.768;18.262;2024-01-30T04:26:05;-0.70;99.90
59469;DHT22;45277;52.768;18.262;2024-01-30T04:27:36;-0.70;99.90
59469;DHT22;45277;52.768;18.262;2024-01-30T04:29:07;-0.80;99.90
59469;DHT22;45277;52.768;18.262;2024-01-30T04:30:39;-0.70;99.90
59469;DHT22;45277;52.768;18.262;2024-01-30T04:32:10;-0.80;99.90
59469;DHT22;45277;52.768;18.262;2024-01-30T04:33:42;-0.80;99.90
59469;DHT22;45277;52.768;18.262;2024-01-30T04:35:13;-0.90;99.90
59469;DHT22;45277;52.768;18.262;2024-01-30T04:36:44;-0.90;99.90
59469;DHT22;45277;52.768;18.262;2024-01-30T04:38:16;-0.90;99.90
59469;DHT22;45277;52.768;18.262;2024-01-30T04:39:48;-0.90;99.90
59469;DHT22;45277;52.768;18.262;2024-01-30T04:41:19;-0.90;99.90
59469;DHT22;45277;52.768;18.262;2024-01-30T04:42:50;-0.80;99.90
59469;DHT22;45277;52.768;18.262;2024-01-30T04:44:22;-0.90;99.90
59469;DHT22;45277;52.768;18.262;2024-01-30T04:45:53;-0.90;99.90
59469;DHT22;45277;52.768;18.262;2024-01-30T04:47:24;-0.80;99.90
59469;DHT22;45277;52.768;18.262;2024-01-30T04:48:55;-0.80;99.90
59469;DHT22;45277;52.768;18.262;2024-01-30T04:50:27;-0.80;99.90
59469;DHT22;45277;52.768;18.262;2024-01-30T04:51:58;-0.80;99.90
59469;DHT22;45277;52.768;18.262;2024-01-30T04:53:30;-0.70;99.90
59469;DHT22;45277;52.768;18.262;2024-01-30T04:55:02;-0.70;99.90
59469;DHT22;45277;52.768;18.262;2024-01-30T04:56:33;-0.70;99.90
59469;DHT22;45277;52.768;18.262;2024-01-30T04:58:05;-0.70;99.90
59469;DHT22;45277;52.768;18.262;2024-01-30T04:59:36;-0.70;99.90
59469;DHT22;45277;52.768;18.262;2024-01-30T05:01:07;-0.70;99.90
59469;DHT22;45277;52.768;18.262;2024-01-30T05:02:39;-0.70;99.90
59469;DHT22;45277;52.768;18.262;2024-01-30T05:04:10;-0.70;99.90
59469;DHT22;45277;52.768;18.262;2024-01-30T05:05:42;-0.70;99.90
59469;DHT22;45277;52.768;18.262;2024-01-30T05:07:13;-0.70;99.90
59469;DHT22;45277;52.768;18.262;2024-01-30T05:08:44;-0.60;99.90
59469;DHT22;45277;52.768;18.262;2024-01-30T05:10:16;-0.60;99.90
59469;DHT22;45277;52.768;18.262;2024-01-30T05:11:47;-0.50;99.90
59469;DHT22;45277;52.768;18.262;2024-01-30T05:13:18;-0.50;99.90
59469;DHT22;45277;52.768;18.262;2024-01-30T05:14:49;-0.40;99.90
59469;DHT22;45277;52.768;18.262;2024-01-30T05:16:21;-0.40;99.90
59469;DHT22;45277;52.768;18.262;2024-01-30T05:17:52;-0.40;99.90
59469;DHT22;45277;52.768;18.262;2024-01-30T05:19:23;-0.40;99.90
59469;DHT22;45277;52.768;18.262;2024-01-30T05:20:55;-0.30;99.90
59469;DHT22;45277;52.768;18.262;2024-01-30T05:22:26;-0.30;99.90
59469;DHT22;45277;52.768;18.262;2024-01-30T05:23:57;-0.30;99.90
59469;DHT22;45277;52.768;18.262;2024-01-30T05:25:28;-0.30;99.90
59469;DHT22;45277;52.768;18.262;2024-01-30T05:26:59;-0.30;99.90
59469;DHT22;45277;52.768;18.262;2024-01-30T05:28:31;-0.30;99.90
59469;DHT22;45277;52.768;18.262;2024-01-30T05:30:03;-0.30;99.90
59469;DHT22;45277;52.768;18.262;2024-01-30T05:31:34;-0.20;99.90
59469;DHT22;45277;52.768;18.262;2024-01-30T05:33:05;-0.20;99.90
59469;DHT22;45277;52.768;18.262;2024-01-30T05:34:37;-0.20;99.90
59469;DHT22;45277;52.768;18.262;2024-01-30T05:36:11;-0.20;99.90
59469;DHT22;45277;52.768;18.262;2024-01-30T05:37:42;-0.20;99.90
59469;DHT22;45277;52.768;18.262;2024-01-30T05:39:14;-0.20;99.90
59469;DHT22;45277;52.768;18.262;2024-01-30T05:40:45;-0.20;99.90
59469;DHT22;45277;52.768;18.262;2024-01-30T05:42:16;-0.20;99.90
59469;DHT22;45277;52.768;18.262;2024-01-30T05:43:48;-0.20;99.90
59469;DHT22;45277;52.768;18.262;2024-01-30T05:45:19;-0.30;99.90
59469;DHT22;45277;52.768;18.262;2024-01-30T05:46:50;-0.30;99.90
59469;DHT22;45277;52.768;18.262;2024-01-30T05:48:22;-0.20;99.90
59469;DHT22;45277;52.768;18.262;2024-01-30T05:49:53;-0.10;99.90
59469;DHT22;45277;52.768;18.262;2024-01-30T05:51:24;-0.10;99.90
59469;DHT22;45277;52.768;18.262;2024-01-30T05:52:56;0.00;99.90
59469;DHT22;45277;52.768;18.262;2024-01-30T05:54:27;0.00;99.90
59469;DHT22;45277;52.768;18.262;2024-01-30T05:55:59;0.00;99.90
59469;DHT22;45277;52.768;18.262;2024-01-30T05:57:30;0.00;99.90
59469;DHT22;45277;52.768;18.262;2024-01-30T05:59:01;0.00;99.90
59469;DHT22;45277;52.768;18.262;2024-01-30T06:00:33;0.00;99.90
59469;DHT22;45277;52.768;18.262;2024-01-30T06:02:04;0.00;99.90
59469;DHT22;45277;52.768;18.262;2024-01-30T06:03:35;0.00;99.90
59469;DHT22;45277;52.768;18.262;2024-01-30T06:05:07;0.00;99.90
59469;DHT22;45277;52.768;18.262;2024-01-30T06:06:38;0.00;99.90
59469;DHT22;45277;52.768;18.262;2024-01-30T06:08:09;0.00;99.90
59469;DHT22;45277;52.768;18.262;2024-01-30T06:09:40;0.00;99.90
59469;DHT22;45277;52.768;18.262;2024-01-30T06:11:12;0.00;99.90
59469;DHT22;45277;52.768;18.262;2024-01-30T06:12:43;0.10;99.90
59469;DHT22;45277;52.768;18.262;2024-01-30T06:14:15;0.10;99.90
59469;DHT22;45277;52.768;18.262;2024-01-30T06:15:46;0.10;99.90
59469;DHT22;45277;52.768;18.262;2024-01-30T06:17:17;0.10;99.90
59469;DHT22;45277;52.768;18.262;2024-01-30T06:18:48;0.10;99.90
59469;DHT22;45277;52.768;18.262;2024-01-30T06:20:20;0.10;99.90
59469;DHT22;45277;52.768;18.262;2024-01-30T06:21:51;0.10;99.90
59469;DHT22;45277;52.768;18.262;2024-01-30T06:23:22;0.10;99.90
59469;DHT22;45277;52.768;18.262;2024-01-30T06:24:53;0.10;99.90
59469;DHT22;45277;52.768;18.262;2024-01-30T06:26:25;0.10;99.90
59469;DHT22;45277;52.768;18.262;2024-01-30T06:27:56;0.10;99.90
59469;DHT22;45277;52.768;18.262;2024-01-30T06:29:27;0.10;99.90
59469;DHT22;45277;52.768;18.262;2024-01-30T06:31:01;0.20;99.90
59469;DHT22;45277;52.768;18.262;2024-01-30T06:32:32;0.10;99.90
59469;DHT22;45277;52.768;18.262;2024-01-30T06:34:05;0.10;99.90
59469;DHT22;45277;52.768;18.262;2024-01-30T06:35:36;0.20;99.90
59469;DHT22;45277;52.768;18.262;2024-01-30T06:37:10;0.20;99.90
59469;DHT22;45277;52.768;18.262;2024-01-30T06:38:42;0.30;99.90
59469;DHT22;45277;52.768;18.262;2024-01-30T06:40:13;0.30;99.90
59469;DHT22;45277;52.768;18.262;2024-01-30T06:41:48;0.30;99.90
59469;DHT22;45277;52.768;18.262;2024-01-30T06:43:19;0.30;99.90
59469;DHT22;45277;52.768;18.262;2024-01-30T06:44:50;0.30;99.90
59469;DHT22;45277;52.768;18.262;2024-01-30T06:46:22;0.30;99.90
59469;DHT22;45277;52.768;18.262;2024-01-30T06:47:53;0.40;99.90
59469;DHT22;45277;52.768;18.262;2024-01-30T06:49:24;0.40;99.90
59469;DHT22;45277;52.768;18.262;2024-01-30T06:50:57;0.40;99.90
59469;DHT22;45277;52.768;18.262;2024-01-30T06:52:29;0.50;99.90
59469;DHT22;45277;52.768;18.262;2024-01-30T06:54:00;0.50;99.90
59469;DHT22;45277;52.768;18.262;2024-01-30T06:55:31;0.60;99.90
59469;DHT22;45277;52.768;18.262;2024-01-30T06:57:03;0.60;99.90
59469;DHT22;45277;52.768;18.262;2024-01-30T06:58:34;0.70;99.90
59469;DHT22;45277;52.768;18.262;2024-01-30T07:00:06;0.70;99.90
59469;DHT22;45277;52.768;18.262;2024-01-30T07:01:37;0.80;99.90
59469;DHT22;45277;52.768;18.262;2024-01-30T07:03:08;0.80;99.90
59469;DHT22;45277;52.768;18.262;2024-01-30T07:04:39;0.80;99.90
59469;DHT22;45277;52.768;18.262;2024-01-30T07:06:13;0.90;99.90
59469;DHT22;45277;52.768;18.262;2024-01-30T07:07:44;0.90;99.90
59469;DHT22;45277;52.768;18.262;2024-01-30T07:09:15;1.00;99.90
59469;DHT22;45277;52.768;18.262;2024-01-30T07:10:47;1.00;99.90
59469;DHT22;45277;52.768;18.262;2024-01-30T07:12:18;1.10;99.90
59469;DHT22;45277;52.768;18.262;2024-01-30T07:13:52;1.10;99.90
59469;DHT22;45277;52.768;18.262;2024-01-30T07:15:23;1.20;99.90
59469;DHT22;45277;52.768;18.262;2024-01-30T07:16:55;1.20;99.90
59469;DHT22;45277;52.768;18.262;2024-01-30T07:18:26;1.30;99.90
59469;DHT22;45277;52.768;18.262;2024-01-30T07:19:57;1.30;99.90
59469;DHT22;45277;52.768;18.262;2024-01-30T07:21:28;1.30;99.90
59469;DHT22;45277;52.768;18.262;2024-01-30T07:22:59;1.40;99.90
59469;DHT22;45277;52.768;18.262;2024-01-30T07:24:31;1.40;99.90
59469;DHT22;45277;52.768;18.262;2024-01-30T07:26:02;1.40;99.90
59469;DHT22;45277;52.768;18.262;2024-01-30T07:27:33;1.50;99.90
59469;DHT22;45277;52.768;18.262;2024-01-30T07:29:05;1.50;99.90
59469;DHT22;45277;52.768;18.262;2024-01-30T07:30:36;1.50;99.90
59469;DHT22;45277;52.768;18.262;2024-01-30T07:32:08;1.60;99.90
59469;DHT22;45277;52.768;18.262;2024-01-30T07:33:39;1.60;99.90
59469;DHT22;45277;52.768;18.262;2024-01-30T07:35:10;1.60;99.90
59469;DHT22;45277;52.768;18.262;2024-01-30T07:36:42;1.70;99.90
59469;DHT22;45277;52.768;18.262;2024-01-30T07:38:13;1.80;99.90
59469;DHT22;45277;52.768;18.262;2024-01-30T07:39:44;1.80;99.90
59469;DHT22;45277;52.768;18.262;2024-01-30T07:41:16;1.90;99.90
59469;DHT22;45277;52.768;18.262;2024-01-30T07:42:48;1.90;99.90
59469;DHT22;45277;52.768;18.262;2024-01-30T07:44:20;2.00;99.90
59469;DHT22;45277;52.768;18.262;2024-01-30T07:45:51;2.00;99.90
59469;DHT22;45277;52.768;18.262;2024-01-30T07:47:23;2.10;99.90
59469;DHT22;45277;52.768;18.262;2024-01-30T07:48:54;2.10;99.90
59469;DHT22;45277;52.768;18.262;2024-01-30T07:50:27;2.20;99.90
59469;DHT22;45277;52.768;18.262;2024-01-30T07:51:58;2.30;99.90
59469;DHT22;45277;52.768;18.262;2024-01-30T07:53:30;2.30;99.90
59469;DHT22;45277;52.768;18.262;2024-01-30T07:55:01;2.40;99.90
59469;DHT22;45277;52.768;18.262;2024-01-30T07:56:35;2.40;99.90
59469;DHT22;45277;52.768;18.262;2024-01-30T07:58:06;2.50;99.90
59469;DHT22;45277;52.768;18.262;2024-01-30T07:59:37;2.50;99.90
59469;DHT22;45277;52.768;18.262;2024-01-30T08:01:08;2.60;99.90
59469;DHT22;45277;52.768;18.262;2024-01-30T08:02:40;2.70;99.90
59469;DHT22;45277;52.768;18.262;2024-01-30T08:04:11;2.70;99.90
59469;DHT22;45277;52.768;18.262;2024-01-30T08:05:42;2.70;99.90
59469;DHT22;45277;52.768;18.262;2024-01-30T08:07:13;2.80;99.90
59469;DHT22;45277;52.768;18.262;2024-01-30T08:08:44;2.80;99.90
59469;DHT22;45277;52.768;18.262;2024-01-30T08:10:16;2.90;99.90
59469;DHT22;45277;52.768;18.262;2024-01-30T08:11:49;2.90;99.90
59469;DHT22;45277;52.768;18.262;2024-01-30T08:13:20;3.00;99.90
59469;DHT22;45277;52.768;18.262;2024-01-30T08:14:52;3.00;99.90
59469;DHT22;45277;52.768;18.262;2024-01-30T08:16:23;3.10;99.90
59469;DHT22;45277;52.768;18.262;2024-01-30T08:17:54;3.10;99.90
59469;DHT22;45277;52.768;18.262;2024-01-30T08:19:29;3.20;99.90
59469;DHT22;45277;52.768;18.262;2024-01-30T08:21:00;3.20;99.90
59469;DHT22;45277;52.768;18.262;2024-01-30T08:22:31;3.20;99.90
59469;DHT22;45277;52.768;18.262;2024-01-30T08:24:06;3.30;99.90
59469;DHT22;45277;52.768;18.262;2024-01-30T08:25:37;3.30;99.90
59469;DHT22;45277;52.768;18.262;2024-01-30T08:27:08;3.30;99.90
59469;DHT22;45277;52.768;18.262;2024-01-30T08:28:43;3.40;99.90
59469;DHT22;45277;52.768;18.262;2024-01-30T08:30:14;3.50;99.90
59469;DHT22;45277;52.768;18.262;2024-01-30T08:31:45;3.50;99.90
59469;DHT22;45277;52.768;18.262;2024-01-30T08:33:17;3.50;99.90
59469;DHT22;45277;52.768;18.262;2024-01-30T08:34:48;3.50;99.90
59469;DHT22;45277;52.768;18.262;2024-01-30T08:36:20;3.50;99.90
59469;DHT22;45277;52.768;18.262;2024-01-30T08:37:51;3.60;99.90
59469;DHT22;45277;52.768;18.262;2024-01-30T08:39:22;3.60;99.90
59469;DHT22;45277;52.768;18.262;2024-01-30T08:40:55;3.60;99.90
59469;DHT22;45277;52.768;18.262;2024-01-30T08:42:26;3.60;99.90
59469;DHT22;45277;52.768;18.262;2024-01-30T08:43:57;3.70;99.90
59469;DHT22;45277;52.768;18.262;2024-01-30T08:45:28;3.70;99.90
59469;DHT22;45277;52.768;18.262;2024-01-30T08:47:00;3.70;99.90
59469;DHT22;45277;52.768;18.262;2024-01-30T08:48:31;3.80;99.90
59469;DHT22;45277;52.768;18.262;2024-01-30T08:50:02;3.80;99.90
59469;DHT22;45277;52.768;18.262;2024-01-30T08:51:35;3.90;99.90
59469;DHT22;45277;52.768;18.262;2024-01-30T08:53:06;3.90;99.90
59469;DHT22;45277;52.768;18.262;2024-01-30T08:54:37;3.90;99.90
59469;DHT22;45277;52.768;18.262;2024-01-30T08:56:09;3.90;99.90
59469;DHT22;45277;52.768;18.262;2024-01-30T08:57:40;4.00;99.90
59469;DHT22;45277;52.768;18.262;2024-01-30T08:59:11;4.00;99.90
59469;DHT22;45277;52.768;18.262;2024-01-30T09:00:43;4.10;99.90
59469;DHT22;45277;52.768;18.262;2024-01-30T09:02:14;4.10;99.90
59469;DHT22;45277;52.768;18.262;2024-01-30T09:03:47;4.10;99.90
59469;DHT22;45277;52.768;18.262;2024-01-30T09:05:18;4.20;99.90
59469;DHT22;45277;52.768;18.262;2024-01-30T09:06:49;4.20;99.90
59469;DHT22;45277;52.768;18.262;2024-01-30T09:08:21;4.20;99.90
59469;DHT22;45277;52.768;18.262;2024-01-30T09:09:52;4.30;99.90
59469;DHT22;45277;52.768;18.262;2024-01-30T09:11:23;4.30;99.90
59469;DHT22;45277;52.768;18.262;2024-01-30T09:12:54;4.30;99.90
59469;DHT22;45277;52.768;18.262;2024-01-30T09:14:26;4.40;99.90
59469;DHT22;45277;52.768;18.262;2024-01-30T09:15:57;4.50;99.90
59469;DHT22;45277;52.768;18.262;2024-01-30T09:17:28;4.50;99.90
59469;DHT22;45277;52.768;18.262;2024-01-30T09:19:01;4.60;99.90
59469;DHT22;45277;52.768;18.262;2024-01-30T09:20:32;4.70;99.90
59469;DHT22;45277;52.768;18.262;2024-01-30T09:22:03;4.70;99.90
59469;DHT22;45277;52.768;18.262;2024-01-30T09:23:35;4.70;99.90
59469;DHT22;45277;52.768;18.262;2024-01-30T09:25:06;4.80;99.90
59469;DHT22;45277;52.768;18.262;2024-01-30T09:26:37;4.80;99.90
59469;DHT22;45277;52.768;18.262;2024-01-30T09:28:09;4.80;99.90
59469;DHT22;45277;52.768;18.262;2024-01-30T09:29:40;4.80;99.90
59469;DHT22;45277;52.768;18.262;2024-01-30T09:31:12;4.80;99.90
59469;DHT22;45277;52.768;18.262;2024-01-30T09:32:43;4.80;99.90
59469;DHT22;45277;52.768;18.262;2024-01-30T09:34:14;4.90;99.90
59469;DHT22;45277;52.768;18.262;2024-01-30T09:35:46;4.90;99.90
59469;DHT22;45277;52.768;18.262;2024-01-30T09:37:17;4.90;99.90